sensor_id;sensor_type;location;lat;lon;timestamp;temperature;humidity
44190;DHT22;29856;52.144;5.430;2023-02-28T00:01:31;4.60;99.90
44190;DHT22;29856;52.144;5.430;2023-02-28T00:03:57;4.70;99.90
44190;DHT22;29856;52.144;5.430;2023-02-28T00:06:23;4.80;99.90
44190;DHT22;29856;52.144;5.430;2023-02-28T00:08:48;4.70;99.90
44190;DHT22;29856;52.144;5.430;2023-02-28T00:11:15;5.00;99.90
44190;DHT22;29856;52.144;5.430;2023-02-28T00:13:43;5.10;99.90
44190;DHT22;29856;52.144;5.430;2023-02-28T00:16:11;5.20;99.90
44190;DHT22;29856;52.144;5.430;2023-02-28T00:18:37;5.10;99.90
44190;DHT22;29856;52.144;5.430;2023-02-28T00:21:03;4.90;99.90
44190;DHT22;29856;52.144;5.430;2023-02-28T00:23:28;4.80;99.90
44190;DHT22;29856;52.144;5.430;2023-02-28T00:25:54;4.80;99.90
44190;DHT22;29856;52.144;5.430;2023-02-28T00:28:20;4.90;99.90
44190;DHT22;29856;52.144;5.430;2023-02-28T00:30:46;4.80;99.90
44190;DHT22;29856;52.144;5.430;2023-02-28T00:33:11;4.80;99.90
44190;DHT22;29856;52.144;5.430;2023-02-28T00:35:37;4.90;99.90
44190;DHT22;29856;52.144;5.430;2023-02-28T00:38:02;5.10;99.90
44190;DHT22;29856;52.144;5.430;2023-02-28T00:40:28;5.10;99.90
44190;DHT22;29856;52.144;5.430;2023-02-28T00:42:54;5.20;99.90
44190;DHT22;29856;52.144;5.430;2023-02-28T00:45:19;5.00;99.90
44190;DHT22;29856;52.144;5.430;2023-02-28T00:47:45;5.20;99.90
44190;DHT22;29856;52.144;5.430;2023-02-28T00:50:11;5.20;99.90
44190;DHT22;29856;52.144;5.430;2023-02-28T00:52:36;5.00;99.90
44190;DHT22;29856;52.144;5.430;2023-02-28T00:55:01;4.90;99.90
44190;DHT22;29856;52.144;5.430;2023-02-28T00:57:27;4.90;99.90
44190;DHT22;29856;52.144;5.430;2023-02-28T00:59:52;4.80;99.90
44190;DHT22;29856;52.144;5.430;2023-02-28T01:02:18;4.70;99.90
44190;DHT22;29856;52.144;5.430;2023-02-28T01:04:43;4.60;99.90
44190;DHT22;29856;52.144;5.430;2023-02-28T01:07:09;4.80;99.90
44190;DHT22;29856;52.144;5.430;2023-02-28T01:09:34;4.80;99.90
44190;DHT22;29856;52.144;5.430;2023-02-28T01:12:00;4.90;99.90
44190;DHT22;29856;52.144;5.430;2023-02-28T01:14:25;4.90;99.90
44190;DHT22;29856;52.144;5.430;2023-02-28T01:16:51;4.80;99.90
44190;DHT22;29856;52.144;5.430;2023-02-28T01:19:16;4.80;99.90
44190;DHT22;29856;52.144;5.430;2023-02-28T01:21:42;4.70;99.90
44190;DHT22;29856;52.144;5.430;2023-02-28T01:24:07;4.80;99.90
44190;DHT22;29856;52.144;5.430;2023-02-28T01:26:33;4.70;99.90
44190;DHT22;29856;52.144;5.430;2023-02-28T01:28:58;4.80;99.90
44190;DHT22;29856;52.144;5.430;2023-02-28T01:31:24;4.90;99.90
44190;DHT22;29856;52.144;5.430;2023-02-28T01:33:50;5.00;99.90
44190;DHT22;29856;52.144;5.430;2023-02-28T01:36:20;5.20;99.90
44190;DHT22;29856;52.144;5.430;2023-02-28T01:38:47;5.20;99.90
44190;DHT22;29856;52.144;5.430;2023-02-28T01:41:31;5.40;99.90
44190;DHT22;29856;52.144;5.430;2023-02-28T01:46:49;5.70;99.90
44190;DHT22;29856;52.144;5.430;2023-02-28T01:49:17;5.50;99.90
44190;DHT22;29856;52.144;5.430;2023-02-28T01:51:50;5.50;99.90
44190;DHT22;29856;52.144;5.430;2023-02-28T01:54:21;5.70;99.90
44190;DHT22;29856;52.144;5.430;2023-02-28T01:56:55;5.80;99.90
44190;DHT22;29856;52.144;5.430;2023-02-28T01:59:42;5.90;99.90
44190;DHT22;29856;52.144;5.430;2023-02-28T02:02:08;6.10;99.90
44190;DHT22;29856;52.144;5.430;2023-02-28T02:04:50;6.10;99.90
44190;DHT22;29856;52.144;5.430;2023-02-28T02:07:17;6.10;99.90
44190;DHT22;29856;52.144;5.430;2023-02-28T02:09:42;5.90;99.90
44190;DHT22;29856;52.144;5.430;2023-02-28T02:13:14;5.50;99.90
44190;DHT22;29856;52.144;5.430;2023-02-28T02:17:56;5.40;99.90
44190;DHT22;29856;52.144;5.430;2023-02-28T02:20:46;5.20;99.90
44190;DHT22;29856;52.144;5.430;2023-02-28T02:23:44;5.40;99.90
44190;DHT22;29856;52.144;5.430;2023-02-28T02:34:17;4.90;99.90
44190;DHT22;29856;52.144;5.430;2023-02-28T02:36:53;4.80;99.90
44190;DHT22;29856;52.144;5.430;2023-02-28T02:39:34;4.70;99.90
44190;DHT22;29856;52.144;5.430;2023-02-28T02:42:05;4.70;99.90
44190;DHT22;29856;52.144;5.430;2023-02-28T02:44:40;4.70;99.90
44190;DHT22;29856;52.144;5.430;2023-02-28T02:47:14;4.70;99.90
44190;DHT22;29856;52.144;5.430;2023-02-28T02:49:44;4.70;99.90
44190;DHT22;29856;52.144;5.430;2023-02-28T02:52:12;4.60;99.90
44190;DHT22;29856;52.144;5.430;2023-02-28T02:54:45;4.70;99.90
44190;DHT22;29856;52.144;5.430;2023-02-28T02:57:25;4.70;99.90
44190;DHT22;29856;52.144;5.430;2023-02-28T02:59:55;4.60;99.90
44190;DHT22;29856;52.144;5.430;2023-02-28T03:02:22;4.60;99.90
44190;DHT22;29856;52.144;5.430;2023-02-28T03:04:59;4.60;99.90
44190;DHT22;29856;52.144;5.430;2023-02-28T03:07:26;4.70;99.90
44190;DHT22;29856;52.144;5.430;2023-02-28T03:09:53;4.80;99.90
44190;DHT22;29856;52.144;5.430;2023-02-28T03:12:19;4.80;99.90
44190;DHT22;29856;52.144;5.430;2023-02-28T03:15:07;4.80;99.90
44190;DHT22;29856;52.144;5.430;2023-02-28T03:20:46;4.90;99.90
44190;DHT22;29856;52.144;5.430;2023-02-28T03:23:21;4.80;99.90
44190;DHT22;29856;52.144;5.430;2023-02-28T03:25:56;5.00;99.90
44190;DHT22;29856;52.144;5.430;2023-02-28T03:28:41;5.00;99.90
44190;DHT22;29856;52.144;5.430;2023-02-28T03:31:16;5.10;99.90
44190;DHT22;29856;52.144;5.430;2023-02-28T03:33:50;5.30;99.90
44190;DHT22;29856;52.144;5.430;2023-02-28T03:36:19;5.20;99.90
44190;DHT22;29856;52.144;5.430;2023-02-28T03:38:50;5.20;99.90
44190;DHT22;29856;52.144;5.430;2023-02-28T03:41:27;5.10;99.90
44190;DHT22;29856;52.144;5.430;2023-02-28T03:44:00;5.20;99.90
44190;DHT22;29856;52.144;5.430;2023-02-28T03:46:28;5.20;99.90
44190;DHT22;29856;52.144;5.430;2023-02-28T03:49:02;5.30;99.90
44190;DHT22;29856;52.144;5.430;2023-02-28T03:51:29;5.50;99.90
44190;DHT22;29856;52.144;5.430;2023-02-28T03:54:01;5.40;99.90
44190;DHT22;29856;52.144;5.430;2023-02-28T03:56:42;5.10;99.90
44190;DHT22;29856;52.144;5.430;2023-02-28T03:59:18;4.90;99.90
44190;DHT22;29856;52.144;5.430;2023-02-28T04:01:48;4.90;99.90
44190;DHT22;29856;52.144;5.430;2023-02-28T04:04:15;4.90;99.90
44190;DHT22;29856;52.144;5.430;2023-02-28T04:06:41;4.80;99.90
44190;DHT22;29856;52.144;5.430;2023-02-28T04:09:08;4.90;99.90
44190;DHT22;29856;52.144;5.430;2023-02-28T04:11:38;4.80;99.90
44190;DHT22;29856;52.144;5.430;2023-02-28T04:14:04;4.70;99.90
44190;DHT22;29856;52.144;5.430;2023-02-28T04:16:31;4.70;99.90
44190;DHT22;29856;52.144;5.430;2023-02-28T04:18:57;4.40;99.90
44190;DHT22;29856;52.144;5.430;2023-02-28T04:21:23;4.40;99.90
44190;DHT22;29856;52.144;5.430;2023-02-28T04:23:48;4.70;99.90
44190;DHT22;29856;52.144;5.430;2023-02-28T04:26:14;4.80;99.90
44190;DHT22;29856;52.144;5.430;2023-02-28T04:28:39;4.80;99.90
44190;DHT22;29856;52.144;5.430;2023-02-28T04:31:05;4.80;99.90
44190;DHT22;29856;52.144;5.430;2023-02-28T04:33:31;4.80;99.90
44190;DHT22;29856;52.144;5.430;2023-02-28T04:36:05;4.80;99.90
44190;DHT22;29856;52.144;5.430;2023-02-28T04:38:38;4.80;99.90
44190;DHT22;29856;52.144;5.430;2023-02-28T04:41:04;4.90;99.90
44190;DHT22;29856;52.144;5.430;2023-02-28T04:43:30;4.70;99.90
44190;DHT22;29856;52.144;5.430;2023-02-28T04:45:57;4.60;99.90
44190;DHT22;29856;52.144;5.430;2023-02-28T04:48:24;4.60;99.90
44190;DHT22;29856;52.144;5.430;2023-02-28T04:50:50;4.60;99.90
44190;DHT22;29856;52.144;5.430;2023-02-28T04:53:16;4.80;99.90
44190;DHT22;29856;52.144;5.430;2023-02-28T04:55:41;4.90;99.90
44190;DHT22;29856;52.144;5.430;2023-02-28T04:58:06;5.00;99.90
44190;DHT22;29856;52.144;5.430;2023-02-28T05:00:32;4.70;99.90
44190;DHT22;29856;52.144;5.430;2023-02-28T05:02:57;4.70;99.90
44190;DHT22;29856;52.144;5.430;2023-02-28T05:05:23;4.60;99.90
44190;DHT22;29856;52.144;5.430;2023-02-28T05:07:48;4.50;99.90
44190;DHT22;29856;52.144;5.430;2023-02-28T05:10:14;4.40;99.90
44190;DHT22;29856;52.144;5.430;2023-02-28T05:12:39;4.50;99.90
44190;DHT22;29856;52.144;5.430;2023-02-28T05:15:05;4.30;99.90
44190;DHT22;29856;52.144;5.430;2023-02-28T05:17:31;4.40;99.90
44190;DHT22;29856;52.144;5.430;2023-02-28T05:19:56;4.30;99.90
44190;DHT22;29856;52.144;5.430;2023-02-28T05:22:22;4.30;99.90
44190;DHT22;29856;52.144;5.430;2023-02-28T05:24:47;4.50;99.90
44190;DHT22;29856;52.144;5.430;2023-02-28T05:27:13;4.60;99.90
44190;DHT22;29856;52.144;5.430;2023-02-28T05:29:38;4.60;99.90
44190;DHT22;29856;52.144;5.430;2023-02-28T05:32:04;4.70;99.90
44190;DHT22;29856;52.144;5.430;2023-02-28T05:34:29;4.80;99.90
44190;DHT22;29856;52.144;5.430;2023-02-28T05:36:55;4.80;99.90
44190;DHT22;29856;52.144;5.430;2023-02-28T05:39:20;4.80;99.90
44190;DHT22;29856;52.144;5.430;2023-02-28T05:41:46;4.80;99.90
44190;DHT22;29856;52.144;5.430;2023-02-28T05:44:11;4.70;99.90
44190;DHT22;29856;52.144;5.430;2023-02-28T05:46:37;4.70;99.90
44190;DHT22;29856;52.144;5.430;2023-02-28T05:49:04;4.80;99.90
44190;DHT22;29856;52.144;5.430;2023-02-28T05:51:29;4.80;99.90
44190;DHT22;29856;52.144;5.430;2023-02-28T05:53:57;4.80;99.90
44190;DHT22;29856;52.144;5.430;2023-02-28T05:56:23;4.80;99.90
44190;DHT22;29856;52.144;5.430;2023-02-28T05:58:48;5.00;99.90
44190;DHT22;29856;52.144;5.430;2023-02-28T06:01:44;4.80;99.90
44190;DHT22;29856;52.144;5.430;2023-02-28T06:04:10;4.80;99.90
44190;DHT22;29856;52.144;5.430;2023-02-28T06:06:36;4.70;99.90
44190;DHT22;29856;52.144;5.430;2023-02-28T06:09:01;4.70;99.90
44190;DHT22;29856;52.144;5.430;2023-02-28T06:11:27;4.70;99.90
44190;DHT22;29856;52.144;5.430;2023-02-28T06:14:00;5.00;99.90
44190;DHT22;29856;52.144;5.430;2023-02-28T06:16:26;5.30;99.90
44190;DHT22;29856;52.144;5.430;2023-02-28T06:18:52;5.10;99.90
44190;DHT22;29856;52.144;5.430;2023-02-28T06:21:18;5.00;99.90
44190;DHT22;29856;52.144;5.430;2023-02-28T06:23:43;5.00;99.90
44190;DHT22;29856;52.144;5.430;2023-02-28T06:26:09;5.00;99.90
44190;DHT22;29856;52.144;5.430;2023-02-28T06:28:34;4.80;99.90
44190;DHT22;29856;52.144;5.430;2023-02-28T06:31:12;4.80;99.90
44190;DHT22;29856;52.144;5.430;2023-02-28T06:33:39;4.90;99.90
44190;DHT22;29856;52.144;5.430;2023-02-28T06:36:06;4.90;99.90
44190;DHT22;29856;52.144;5.430;2023-02-28T06:38:32;4.80;99.90
44190;DHT22;29856;52.144;5.430;2023-02-28T06:40:58;4.70;99.90
44190;DHT22;29856;52.144;5.430;2023-02-28T06:43:25;4.50;99.90
44190;DHT22;29856;52.144;5.430;2023-02-28T06:45:54;4.50;99.90
44190;DHT22;29856;52.144;5.430;2023-02-28T06:48:20;4.10;99.90
44190;DHT22;29856;52.144;5.430;2023-02-28T06:50:45;4.30;99.90
44190;DHT22;29856;52.144;5.430;2023-02-28T06:53:10;4.20;99.90
44190;DHT22;29856;52.144;5.430;2023-02-28T06:55:38;4.10;99.90
44190;DHT22;29856;52.144;5.430;2023-02-28T06:58:03;4.10;99.90
44190;DHT22;29856;52.144;5.430;2023-02-28T07:00:28;4.10;99.90
44190;DHT22;29856;52.144;5.430;2023-02-28T07:02:54;4.00;99.90
44190;DHT22;29856;52.144;5.430;2023-02-28T07:05:19;3.90;99.90
44190;DHT22;29856;52.144;5.430;2023-02-28T07:07:45;3.90;99.90
44190;DHT22;29856;52.144;5.430;2023-02-28T07:10:11;3.80;99.90
44190;DHT22;29856;52.144;5.430;2023-02-28T07:12:37;3.80;99.90
44190;DHT22;29856;52.144;5.430;2023-02-28T07:15:04;3.90;99.90
44190;DHT22;29856;52.144;5.430;2023-02-28T07:17:29;4.20;99.90
44190;DHT22;29856;52.144;5.430;2023-02-28T07:19:55;4.30;99.90
44190;DHT22;29856;52.144;5.430;2023-02-28T07:22:20;4.30;99.90
44190;DHT22;29856;52.144;5.430;2023-02-28T07:24:46;4.40;99.90
44190;DHT22;29856;52.144;5.430;2023-02-28T07:27:11;4.20;99.90
44190;DHT22;29856;52.144;5.430;2023-02-28T07:29:37;4.10;99.90
44190;DHT22;29856;52.144;5.430;2023-02-28T07:32:02;4.10;99.90
44190;DHT22;29856;52.144;5.430;2023-02-28T07:34:28;4.00;99.90
44190;DHT22;29856;52.144;5.430;2023-02-28T07:36:54;4.00;99.90
44190;DHT22;29856;52.144;5.430;2023-02-28T07:39:20;4.40;99.90
44190;DHT22;29856;52.144;5.430;2023-02-28T07:41:46;4.30;99.90
44190;DHT22;29856;52.144;5.430;2023-02-28T07:44:11;4.20;99.90
44190;DHT22;29856;52.144;5.430;2023-02-28T07:46:37;4.10;99.90
44190;DHT22;29856;52.144;5.430;2023-02-28T07:49:04;4.10;99.90
44190;DHT22;29856;52.144;5.430;2023-02-28T07:51:30;4.10;99.90
44190;DHT22;29856;52.144;5.430;2023-02-28T07:53:56;4.10;99.90
44190;DHT22;29856;52.144;5.430;2023-02-28T07:56:21;4.20;99.90
44190;DHT22;29856;52.144;5.430;2023-02-28T07:58:47;4.10;99.90
44190;DHT22;29856;52.144;5.430;2023-02-28T08:01:12;4.20;99.90
44190;DHT22;29856;52.144;5.430;2023-02-28T08:03:39;4.30;99.90
44190;DHT22;29856;52.144;5.430;2023-02-28T08:06:05;4.30;99.90
44190;DHT22;29856;52.144;5.430;2023-02-28T08:08:31;4.60;99.90
44190;DHT22;29856;52.144;5.430;2023-02-28T08:11:03;4.40;99.90
44190;DHT22;29856;52.144;5.430;2023-02-28T08:13:29;4.40;99.90
44190;DHT22;29856;52.144;5.430;2023-02-28T08:15:55;4.50;99.90
44190;DHT22;29856;52.144;5.430;2023-02-28T08:18:22;4.50;99.90
44190;DHT22;29856;52.144;5.430;2023-02-28T08:20:48;4.30;99.90
44190;DHT22;29856;52.144;5.430;2023-02-28T08:23:13;4.20;99.90
44190;DHT22;29856;52.144;5.430;2023-02-28T08:25:39;4.10;99.90
44190;DHT22;29856;52.144;5.430;2023-02-28T08:28:05;4.10;99.90
44190;DHT22;29856;52.144;5.430;2023-02-28T08:30:30;4.20;99.90
44190;DHT22;29856;52.144;5.430;2023-02-28T08:32:56;4.10;99.90
44190;DHT22;29856;52.144;5.430;2023-02-28T08:35:22;4.30;99.90
44190;DHT22;29856;52.144;5.430;2023-02-28T08:37:48;4.30;99.90
44190;DHT22;29856;52.144;5.430;2023-02-28T08:40:13;4.40;99.90
44190;DHT22;29856;52.144;5.430;2023-02-28T08:42:39;4.40;99.90
44190;DHT22;29856;52.144;5.430;2023-02-28T08:45:05;4.50;99.90
44190;DHT22;29856;52.144;5.430;2023-02-28T08:47:31;4.60;99.90
44190;DHT22;29856;52.144;5.430;2023-02-28T08:49:56;4.70;99.90
44190;DHT22;29856;52.144;5.430;2023-02-28T08:52:22;4.90;99.90
44190;DHT22;29856;52.144;5.430;2023-02-28T08:54:47;5.20;99.90
44190;DHT22;29856;52.144;5.430;2023-02-28T08:57:13;5.30;99.90
44190;DHT22;29856;52.144;5.430;2023-02-28T08:59:38;5.20;99.90
44190;DHT22;29856;52.144;5.430;2023-02-28T09:02:04;5.20;99.90
44190;DHT22;29856;52.144;5.430;2023-02-28T09:04:29;5.10;99.90
44190;DHT22;29856;52.144;5.430;2023-02-28T09:06:55;5.10;99.90
44190;DHT22;29856;52.144;5.430;2023-02-28T09:09:20;5.30;99.90
44190;DHT22;29856;52.144;5.430;2023-02-28T09:11:46;5.40;99.90
44190;DHT22;29856;52.144;5.430;2023-02-28T09:14:11;5.80;99.90
44190;DHT22;29856;52.144;5.430;2023-02-28T09:16:37;5.70;99.90
44190;DHT22;29856;52.144;5.430;2023-02-28T09:19:02;5.80;99.90
44190;DHT22;29856;52.144;5.430;2023-02-28T09:21:28;5.90;99.90
44190;DHT22;29856;52.144;5.430;2023-02-28T09:23:53;5.70;99.90
44190;DHT22;29856;52.144;5.430;2023-02-28T09:26:24;5.50;99.90
44190;DHT22;29856;52.144;5.430;2023-02-28T09:28:51;5.60;99.90
44190;DHT22;29856;52.144;5.430;2023-02-28T09:31:19;5.80;99.90
44190;DHT22;29856;52.144;5.430;2023-02-28T09:33:45;5.90;99.90
44190;DHT22;29856;52.144;5.430;2023-02-28T09:36:10;5.90;99.90
44190;DHT22;29856;52.144;5.430;2023-02-28T09:38:36;6.20;99.90
44190;DHT22;29856;52.144;5.430;2023-02-28T09:41:04;6.20;99.90
44190;DHT22;29856;52.144;5.430;2023-02-28T09:43:38;6.20;99.90
44190;DHT22;29856;52.144;5.430;2023-02-28T09:46:33;6.00;99.90
44190;DHT22;29856;52.144;5.430;2023-02-28T09:49:02;6.20;99.90
44190;DHT22;29856;52.144;5.430;2023-02-28T09:54:22;6.30;99.90
44190;DHT22;29856;52.144;5.430;2023-02-28T09:59:39;6.30;99.90
44190;DHT22;29856;52.144;5.430;2023-02-28T10:02:49;6.40;99.90
44190;DHT22;29856;52.144;5.430;2023-02-28T10:05:33;6.50;99.90
44190;DHT22;29856;52.144;5.430;2023-02-28T10:10:57;6.40;99.90
44190;DHT22;29856;52.144;5.430;2023-02-28T10:13:36;6.70;99.90
44190;DHT22;29856;52.144;5.430;2023-02-28T10:16:15;6.80;99.90
44190;DHT22;29856;52.144;5.430;2023-02-28T10:18:49;6.90;99.60
44190;DHT22;29856;52.144;5.430;2023-02-28T10:21:23;6.80;98.30
44190;DHT22;29856;52.144;5.430;2023-02-28T10:26:58;6.30;99.00
44190;DHT22;29856;52.144;5.430;2023-02-28T10:29:24;6.60;99.90
44190;DHT22;29856;52.144;5.430;2023-02-28T10:31:50;6.50;98.20
44190;DHT22;29856;52.144;5.430;2023-02-28T10:34:15;6.50;97.40
44190;DHT22;29856;52.144;5.430;2023-02-28T10:36:41;6.30;96.70
44190;DHT22;29856;52.144;5.430;2023-02-28T10:39:42;6.30;96.70
44190;DHT22;29856;52.144;5.430;2023-02-28T10:42:28;6.50;97.70
44190;DHT22;29856;52.144;5.430;2023-02-28T10:47:42;6.60;97.60
44190;DHT22;29856;52.144;5.430;2023-02-28T10:53:28;6.50;97.60
44190;DHT22;29856;52.144;5.430;2023-02-28T10:58:59;6.70;98.60
44190;DHT22;29856;52.144;5.430;2023-02-28T11:01:45;6.90;97.60
44190;DHT22;29856;52.144;5.430;2023-02-28T11:06:44;6.70;96.50
44190;DHT22;29856;52.144;5.430;2023-02-28T11:11:47;7.10;96.70
44190;DHT22;29856;52.144;5.430;2023-02-28T11:14:28;7.30;96.90
44190;DHT22;29856;52.144;5.430;2023-02-28T11:17:00;7.40;96.70
44190;DHT22;29856;52.144;5.430;2023-02-28T11:19:32;7.20;96.50
44190;DHT22;29856;52.144;5.430;2023-02-28T11:22:04;7.10;96.80
44190;DHT22;29856;52.144;5.430;2023-02-28T11:24:59;7.20;96.40
44190;DHT22;29856;52.144;5.430;2023-02-28T11:27:48;7.50;97.80
44190;DHT22;29856;52.144;5.430;2023-02-28T11:30:33;7.50;96.30
44190;DHT22;29856;52.144;5.430;2023-02-28T11:32:58;7.40;96.40
44190;DHT22;29856;52.144;5.430;2023-02-28T11:35:28;7.30;95.90
44190;DHT22;29856;52.144;5.430;2023-02-28T11:37:55;7.50;96.70
44190;DHT22;29856;52.144;5.430;2023-02-28T11:45:52;7.50;95.90
44190;DHT22;29856;52.144;5.430;2023-02-28T11:48:40;7.40;95.80
44190;DHT22;29856;52.144;5.430;2023-02-28T11:57:24;7.50;95.70
44190;DHT22;29856;52.144;5.430;2023-02-28T12:00:22;7.60;95.50
44190;DHT22;29856;52.144;5.430;2023-02-28T12:05:45;7.50;96.50
44190;DHT22;29856;52.144;5.430;2023-02-28T12:08:43;7.70;95.60
44190;DHT22;29856;52.144;5.430;2023-02-28T12:14:18;7.70;95.90
44190;DHT22;29856;52.144;5.430;2023-02-28T12:22:30;7.70;95.20
44190;DHT22;29856;52.144;5.430;2023-02-28T12:27:33;7.80;95.30
44190;DHT22;29856;52.144;5.430;2023-02-28T12:30:25;7.80;95.90
44190;DHT22;29856;52.144;5.430;2023-02-28T12:33:14;7.90;95.80
44190;DHT22;29856;52.144;5.430;2023-02-28T12:35:57;8.00;96.60
44190;DHT22;29856;52.144;5.430;2023-02-28T12:38:36;7.90;94.90
44190;DHT22;29856;52.144;5.430;2023-02-28T12:41:09;8.00;94.80
44190;DHT22;29856;52.144;5.430;2023-02-28T12:43:42;7.90;94.90
44190;DHT22;29856;52.144;5.430;2023-02-28T12:46:33;8.10;94.80
44190;DHT22;29856;52.144;5.430;2023-02-28T12:49:05;8.10;95.50
44190;DHT22;29856;52.144;5.430;2023-02-28T12:51:32;8.00;95.00
44190;DHT22;29856;52.144;5.430;2023-02-28T12:54:00;7.90;94.80
44190;DHT22;29856;52.144;5.430;2023-02-28T12:56:33;8.10;94.80
44190;DHT22;29856;52.144;5.430;2023-02-28T13:04:56;8.10;95.20
44190;DHT22;29856;52.144;5.430;2023-02-28T13:09:59;8.40;94.50
44190;DHT22;29856;52.144;5.430;2023-02-28T13:12:26;8.50;94.80
44190;DHT22;29856;52.144;5.430;2023-02-28T13:15:23;8.40;95.30
44190;DHT22;29856;52.144;5.430;2023-02-28T13:17:56;8.30;94.20
44190;DHT22;29856;52.144;5.430;2023-02-28T13:20:34;8.40;94.60
44190;DHT22;29856;52.144;5.430;2023-02-28T13:23:00;8.50;94.90
44190;DHT22;29856;52.144;5.430;2023-02-28T13:25:49;8.70;94.80
44190;DHT22;29856;52.144;5.430;2023-02-28T13:28:13;8.70;93.80
44190;DHT22;29856;52.144;5.430;2023-02-28T13:35:46;8.80;94.40
44190;DHT22;29856;52.144;5.430;2023-02-28T13:38:44;8.70;94.70
44190;DHT22;29856;52.144;5.430;2023-02-28T13:44:05;8.50;93.50
44190;DHT22;29856;52.144;5.430;2023-02-28T13:46:33;8.50;94.00
44190;DHT22;29856;52.144;5.430;2023-02-28T13:49:18;8.50;94.10
44190;DHT22;29856;52.144;5.430;2023-02-28T13:51:51;8.50;94.90
44190;DHT22;29856;52.144;5.430;2023-02-28T13:54:34;8.50;93.90
44190;DHT22;29856;52.144;5.430;2023-02-28T14:05:19;8.80;94.10
44190;DHT22;29856;52.144;5.430;2023-02-28T14:07:50;8.90;93.50
44190;DHT22;29856;52.144;5.430;2023-02-28T14:10:28;8.90;93.40
44190;DHT22;29856;52.144;5.430;2023-02-28T14:15:55;9.10;93.90
44190;DHT22;29856;52.144;5.430;2023-02-28T14:20:52;9.00;93.40
44190;DHT22;29856;52.144;5.430;2023-02-28T14:23:43;8.80;94.00
44190;DHT22;29856;52.144;5.430;2023-02-28T14:26:13;8.70;94.10
44190;DHT22;29856;52.144;5.430;2023-02-28T14:31:44;8.90;93.80
44190;DHT22;29856;52.144;5.430;2023-02-28T14:34:26;9.10;93.90
44190;DHT22;29856;52.144;5.430;2023-02-28T14:37:00;9.10;93.90
44190;DHT22;29856;52.144;5.430;2023-02-28T14:39:27;9.00;93.80
44190;DHT22;29856;52.144;5.430;2023-02-28T14:41:54;8.90;93.90
44190;DHT22;29856;52.144;5.430;2023-02-28T14:44:27;9.00;93.50
44190;DHT22;29856;52.144;5.430;2023-02-28T14:46:55;9.10;93.70
44190;DHT22;29856;52.144;5.430;2023-02-28T14:49:32;9.00;94.20
44190;DHT22;29856;52.144;5.430;2023-02-28T14:52:06;9.10;94.30
44190;DHT22;29856;52.144;5.430;2023-02-28T14:54:32;9.30;94.20
44190;DHT22;29856;52.144;5.430;2023-02-28T14:56:58;9.20;94.10
44190;DHT22;29856;52.144;5.430;2023-02-28T14:59:35;9.30;94.00
44190;DHT22;29856;52.144;5.430;2023-02-28T15:02:21;9.30;94.10
44190;DHT22;29856;52.144;5.430;2023-02-28T15:04:53;9.10;92.60
44190;DHT22;29856;52.144;5.430;2023-02-28T15:07:19;9.10;93.50
44190;DHT22;29856;52.144;5.430;2023-02-28T15:09:45;9.10;93.70
44190;DHT22;29856;52.144;5.430;2023-02-28T15:12:14;8.90;92.90
44190;DHT22;29856;52.144;5.430;2023-02-28T15:14:42;8.90;93.50
44190;DHT22;29856;52.144;5.430;2023-02-28T15:17:22;9.00;93.90
44190;DHT22;29856;52.144;5.430;2023-02-28T15:19:50;8.90;93.50
44190;DHT22;29856;52.144;5.430;2023-02-28T15:22:26;8.90;93.40
44190;DHT22;29856;52.144;5.430;2023-02-28T15:24:54;9.00;93.50
44190;DHT22;29856;52.144;5.430;2023-02-28T15:27:29;8.90;93.20
44190;DHT22;29856;52.144;5.430;2023-02-28T15:29:57;8.90;93.70
44190;DHT22;29856;52.144;5.430;2023-02-28T15:32:33;9.00;93.60
44190;DHT22;29856;52.144;5.430;2023-02-28T15:35:17;9.00;93.40
44190;DHT22;29856;52.144;5.430;2023-02-28T15:37:50;9.10;93.80
44190;DHT22;29856;52.144;5.430;2023-02-28T15:40:26;9.10;94.00
44190;DHT22;29856;52.144;5.430;2023-02-28T15:43:18;8.90;93.40
44190;DHT22;29856;52.144;5.430;2023-02-28T15:46:07;8.90;93.60
44190;DHT22;29856;52.144;5.430;2023-02-28T15:48:43;9.10;93.70
44190;DHT22;29856;52.144;5.430;2023-02-28T15:51:25;9.10;93.60
44190;DHT22;29856;52.144;5.430;2023-02-28T15:54:01;9.10;94.00
44190;DHT22;29856;52.144;5.430;2023-02-28T15:56:30;9.10;94.50
44190;DHT22;29856;52.144;5.430;2023-02-28T15:58:58;9.40;96.40
44190;DHT22;29856;52.144;5.430;2023-02-28T16:01:28;9.40;94.30
44190;DHT22;29856;52.144;5.430;2023-02-28T16:03:57;9.20;94.20
44190;DHT22;29856;52.144;5.430;2023-02-28T16:06:42;8.90;94.20
44190;DHT22;29856;52.144;5.430;2023-02-28T16:09:16;8.90;94.50
44190;DHT22;29856;52.144;5.430;2023-02-28T16:11:49;8.80;93.90
44190;DHT22;29856;52.144;5.430;2023-02-28T16:14:21;8.70;94.50
44190;DHT22;29856;52.144;5.430;2023-02-28T16:16:49;8.80;94.30
44190;DHT22;29856;52.144;5.430;2023-02-28T16:19:15;8.70;94.70
44190;DHT22;29856;52.144;5.430;2023-02-28T16:21:41;8.70;94.60
44190;DHT22;29856;52.144;5.430;2023-02-28T16:24:07;8.50;94.00
44190;DHT22;29856;52.144;5.430;2023-02-28T16:26:32;8.40;94.40
44190;DHT22;29856;52.144;5.430;2023-02-28T16:28:58;8.30;94.50
44190;DHT22;29856;52.144;5.430;2023-02-28T16:31:24;8.30;94.80
44190;DHT22;29856;52.144;5.430;2023-02-28T16:33:49;8.30;95.80
44190;DHT22;29856;52.144;5.430;2023-02-28T16:36:21;8.20;94.80
44190;DHT22;29856;52.144;5.430;2023-02-28T16:38:46;8.20;95.10
44190;DHT22;29856;52.144;5.430;2023-02-28T16:41:16;8.20;95.60
44190;DHT22;29856;52.144;5.430;2023-02-28T16:43:44;8.20;95.60
44190;DHT22;29856;52.144;5.430;2023-02-28T16:46:11;8.20;95.70
44190;DHT22;29856;52.144;5.430;2023-02-28T16:48:37;8.10;95.60
44190;DHT22;29856;52.144;5.430;2023-02-28T16:51:02;8.00;95.90
44190;DHT22;29856;52.144;5.430;2023-02-28T16:53:28;8.00;96.00
44190;DHT22;29856;52.144;5.430;2023-02-28T16:55:53;8.00;96.20
44190;DHT22;29856;52.144;5.430;2023-02-28T16:58:19;7.90;96.30
44190;DHT22;29856;52.144;5.430;2023-02-28T17:00:44;7.90;96.50
44190;DHT22;29856;52.144;5.430;2023-02-28T17:03:39;7.70;96.30
44190;DHT22;29856;52.144;5.430;2023-02-28T17:06:05;7.60;96.80
44190;DHT22;29856;52.144;5.430;2023-02-28T17:08:31;7.60;96.90
44190;DHT22;29856;52.144;5.430;2023-02-28T17:10:57;7.50;96.60
44190;DHT22;29856;52.144;5.430;2023-02-28T17:13:22;7.30;97.20
44190;DHT22;29856;52.144;5.430;2023-02-28T17:15:48;7.30;97.30
44190;DHT22;29856;52.144;5.430;2023-02-28T17:18:15;7.20;97.70
44190;DHT22;29856;52.144;5.430;2023-02-28T17:20:42;7.20;97.90
44190;DHT22;29856;52.144;5.430;2023-02-28T17:23:08;7.10;97.90
44190;DHT22;29856;52.144;5.430;2023-02-28T17:25:33;7.10;97.90
44190;DHT22;29856;52.144;5.430;2023-02-28T17:27:58;7.10;97.80
44190;DHT22;29856;52.144;5.430;2023-02-28T17:30:26;7.10;97.80
44190;DHT22;29856;52.144;5.430;2023-02-28T17:32:52;7.10;97.50
44190;DHT22;29856;52.144;5.430;2023-02-28T17:35:17;7.10;97.90
44190;DHT22;29856;52.144;5.430;2023-02-28T17:37:43;7.10;98.30
44190;DHT22;29856;52.144;5.430;2023-02-28T17:40:21;7.10;98.60
44190;DHT22;29856;52.144;5.430;2023-02-28T17:42:46;7.10;98.00
44190;DHT22;29856;52.144;5.430;2023-02-28T17:45:13;7.10;99.90